Time;durP1;ratioP1;P1;durP2;ratioP2;P2;SDS_P1;SDS_P2;PMS_P1;PMS_P2;Temp;Humidity;BMP_temperature;BMP_pressure;BME280_temperature;BME280_humidity;BME280_pressure;Samples;Min_cycle;Max_cycle;Signal;HPM_P1;HPM_P2
2022/11/28 00:00:23;;;;;;;17.50;15.83;;;;;;;4.46;100.00;100171.59;4982070;28;20296;-73
2022/11/28 00:02:48;;;;;;;17.20;15.50;;;;;;;4.44;100.00;100163.91;4983111;28;20904;-73
2022/11/28 00:05:13;;;;;;;16.87;15.37;;;;;;;4.41;100.00;100163.84;4983450;28;20646;-74
2022/11/28 00:07:38;;;;;;;17.93;16.23;;;;;;;4.40;100.00;100154.44;4987521;28;20969;-73
2022/11/28 00:10:06;;;;;;;18.10;16.40;;;;;;;4.40;100.00;100162.13;4983135;28;20224;-73
2022/11/28 00:12:32;;;;;;;18.37;16.67;;;;;;;4.39;100.00;100158.69;4979079;28;20915;-73
2022/11/28 00:14:57;;;;;;;17.27;15.67;;;;;;;4.38;100.00;100154.44;4989507;28;20217;-73
2022/11/28 00:17:23;;;;;;;15.97;14.47;;;;;;;4.39;100.00;100155.28;4980369;28;20279;-73
2022/11/28 00:19:48;;;;;;;15.97;14.47;;;;;;;4.39;100.00;100151.00;4982992;28;20369;-75
2022/11/28 00:22:13;;;;;;;16.37;14.80;;;;;;;4.40;100.00;100154.44;4986911;28;20197;-74
2022/11/28 00:24:39;;;;;;;17.67;15.97;;;;;;;4.38;100.00;100154.44;4993757;28;20222;-74
2022/11/28 00:27:04;;;;;;;16.77;15.07;;;;;;;4.36;100.00;100155.22;4983774;28;20627;-73
2022/11/28 00:29:29;;;;;;;16.03;14.43;;;;;;;4.36;100.00;100160.34;4983702;28;20229;-73
2022/11/28 00:31:55;;;;;;;15.97;14.40;;;;;;;4.35;100.00;100158.63;4986230;28;20601;-74
2022/11/28 00:34:20;;;;;;;15.40;14.00;;;;;;;4.33;100.00;100143.25;5010324;28;20198;-75
2022/11/28 00:36:46;;;;;;;15.40;13.90;;;;;;;4.33;100.00;100142.38;5007720;28;20555;-73
2022/11/28 00:39:14;;;;;;;14.77;13.37;;;;;;;4.34;100.00;100138.97;4992167;28;20706;-73
2022/11/28 00:41:39;;;;;;;15.43;14.00;;;;;;;4.35;100.00;100138.13;4988629;28;20300;-73
2022/11/28 00:44:05;;;;;;;15.07;13.67;;;;;;;4.35;100.00;100141.56;4988841;28;20686;-74
2022/11/28 00:46:30;;;;;;;15.37;13.97;;;;;;;4.36;100.00;100134.72;4984722;28;20223;-73
2022/11/28 00:48:56;;;;;;;15.27;13.87;;;;;;;4.35;100.00;100136.44;4986817;28;20195;-75
2022/11/28 00:51:25;;;;;;;15.57;14.17;;;;;;;4.38;100.00;100128.81;4983428;28;20375;-73
2022/11/28 00:53:51;;;;;;;17.40;15.77;;;;;;;4.38;100.00;100125.38;4985213;28;20193;-73
2022/11/28 00:56:20;;;;;;;17.70;16.00;;;;;;;4.40;100.00;100116.84;4985297;28;20184;-72
2022/11/28 00:58:48;;;;;;;15.57;14.07;;;;;;;4.40;100.00;100119.41;4984131;28;20562;-72
2022/11/28 01:01:35;;;;;;;16.90;15.30;;;;;;;4.41;100.00;100122.84;4981769;28;20710;-74
2022/11/28 01:04:04;;;;;;;17.27;15.57;;;;;;;4.42;100.00;100115.19;4991799;28;20685;-73
2022/11/28 01:06:47;;;;;;;15.30;13.83;;;;;;;4.44;100.00;100117.78;4988265;28;20214;-72
2022/11/28 01:09:17;;;;;;;16.17;14.53;;;;;;;4.45;100.00;100111.81;4984672;28;20642;-73
2022/11/28 01:11:44;;;;;;;16.00;14.50;;;;;;;4.48;100.00;100113.56;4975673;28;20940;-74
2022/11/28 01:14:11;;;;;;;16.40;14.87;;;;;;;4.49;100.00;100117.84;4983609;28;20185;-74
2022/11/28 01:16:37;;;;;;;16.17;14.67;;;;;;;4.50;100.00;100128.09;4985950;28;20198;-73
2022/11/28 01:19:03;;;;;;;15.40;13.90;;;;;;;4.51;100.00;100137.50;4985894;28;20216;-73
2022/11/28 01:21:29;;;;;;;15.03;13.63;;;;;;;4.52;100.00;100139.22;4983983;28;20254;-73
2022/11/28 01:23:55;;;;;;;14.27;12.97;;;;;;;4.53;100.00;100124.72;4984630;28;20269;-73
2022/11/28 01:26:24;;;;;;;14.63;13.23;;;;;;;4.53;100.00;100132.41;4983874;28;20181;-72
2022/11/28 01:28:50;;;;;;;14.30;13.00;;;;;;;4.53;100.00;100122.16;4985420;28;20191;-74
2022/11/28 01:31:18;;;;;;;14.07;12.77;;;;;;;4.53;100.00;100117.88;4984969;28;20202;-73
2022/11/28 01:33:44;;;;;;;14.50;13.20;;;;;;;4.54;100.00;100116.16;4984534;28;20293;-74
2022/11/28 01:36:10;;;;;;;14.47;13.07;;;;;;;4.54;100.00;100116.16;4984096;28;20285;-73
2022/11/28 01:38:36;;;;;;;15.30;13.97;;;;;;;4.54;100.00;100106.81;4981842;28;20186;-74
2022/11/28 01:41:02;;;;;;;14.67;13.30;;;;;;;4.55;100.00;100094.81;4984508;28;20679;-73
2022/11/28 01:43:28;;;;;;;14.53;13.13;;;;;;;4.55;100.00;100085.47;4982626;28;20205;-72
2022/11/28 01:45:54;;;;;;;16.30;14.90;;;;;;;4.55;100.00;100077.78;4985777;28;20203;-73
2022/11/28 01:48:31;;;;;;;16.30;14.80;;;;;;;4.56;100.00;100076.06;4988995;28;20727;-73
2022/11/28 01:51:00;;;;;;;15.07;13.77;;;;;;;4.57;100.00;100077.78;4987303;28;20211;-74
2022/11/28 01:53:29;;;;;;;15.13;13.73;;;;;;;4.57;100.00;100068.41;4980946;28;20193;-73
2022/11/28 01:56:00;;;;;;;16.23;14.70;;;;;;;4.57;100.00;100068.41;4983639;28;20233;-75
2022/11/28 01:58:27;;;;;;;15.60;14.20;;;;;;;4.58;100.00;100065.00;4983056;28;20190;-73
2022/11/28 02:00:52;;;;;;;15.77;14.27;;;;;;;4.60;100.00;100066.72;4986039;28;20204;-73
2022/11/28 02:03:23;;;;;;;16.07;14.57;;;;;;;4.57;100.00;100060.72;4990080;28;20997;-73
2022/11/28 02:05:50;;;;;;;16.53;14.93;;;;;;;4.56;100.00;100064.13;4983955;28;20193;-72
2022/11/28 02:08:16;;;;;;;16.30;14.80;;;;;;;4.55;100.00;100062.38;4982216;28;20192;-74
2022/11/28 02:11:02;;;;;;;15.63;14.20;;;;;;;4.53;100.00;100068.34;4980555;28;20208;-73
2022/11/28 02:13:45;;;;;;;16.50;15.00;;;;;;;4.49;100.00;100070.00;4962292;28;20191;-72
2022/11/28 02:16:49;;;;;;;16.13;14.67;;;;;;;4.42;100.00;100070.78;4982030;28;20181;-72
2022/11/28 02:19:36;;;;;;;16.20;14.73;;;;;;;4.35;100.00;100059.59;4945331;28;20306;-73
2022/11/28 02:22:22;;;;;;;17.17;15.47;;;;;;;4.32;100.00;100061.22;4944410;28;20186;-72
2022/11/28 02:25:14;;;;;;;15.70;14.30;;;;;;;4.29;100.00;100061.22;4970747;28;20250;-72
2022/11/28 02:28:08;;;;;;;15.60;14.10;;;;;;;4.23;100.00;100052.59;4981583;28;20206;-72
2022/11/28 02:30:58;;;;;;;14.77;13.47;;;;;;;4.20;100.00;100051.69;4985112;28;20227;-72
2022/11/28 02:33:33;;;;;;;14.67;13.37;;;;;;;4.18;100.00;100055.94;4979813;28;20200;-72
2022/11/28 02:36:02;;;;;;;15.40;13.83;;;;;;;4.14;100.00;100044.81;4983774;28;20342;-72
2022/11/28 02:38:46;;;;;;;16.83;15.23;;;;;;;4.12;100.00;100039.63;4983580;28;20336;-72
2022/11/28 02:41:14;;;;;;;16.57;14.87;;;;;;;4.12;100.00;100034.53;4985348;28;20255;-72
2022/11/28 02:43:49;;;;;;;17.60;15.90;;;;;;;4.13;100.00;100027.72;4987520;28;20770;-73
2022/11/28 02:46:35;;;;;;;16.23;14.73;;;;;;;4.13;100.00;100020.03;4983260;28;20215;-72
2022/11/28 02:49:06;;;;;;;16.57;15.17;;;;;;;4.15;100.00;100017.47;4981078;28;20665;-72
2022/11/28 02:51:50;;;;;;;15.97;14.57;;;;;;;4.14;100.00;100014.06;4983144;28;20655;-74
2022/11/28 02:54:17;;;;;;;16.70;15.20;;;;;;;4.12;100.00;100000.38;4981813;28;20189;-72
2022/11/28 02:56:49;;;;;;;15.83;14.43;;;;;;;4.11;100.00;99994.38;4990677;28;20200;-73
2022/11/28 02:59:31;;;;;;;16.47;14.97;;;;;;;4.11;100.00;99998.66;4989087;28;20300;-72
2022/11/28 03:01:58;;;;;;;14.50;13.20;;;;;;;4.09;100.00;99997.78;4985236;28;20196;-73
2022/11/28 03:04:51;;;;;;;15.83;14.43;;;;;;;4.08;100.00;99996.03;4983417;28;20233;-72
2022/11/28 03:07:22;;;;;;;15.20;13.77;;;;;;;4.07;100.00;99999.44;4993709;28;20220;-73
2022/11/28 03:10:03;;;;;;;15.03;13.63;;;;;;;4.06;100.00;100001.16;4985753;28;21127;-74
2022/11/28 03:12:41;;;;;;;15.50;13.97;;;;;;;4.06;100.00;100013.09;4983438;28;20201;-74
2022/11/28 03:15:08;;;;;;;16.67;15.13;;;;;;;4.05;100.00;100019.94;4987629;28;20669;-74
2022/11/28 03:18:08;;;;;;;16.73;15.23;;;;;;;4.06;100.00;100021.66;4983095;28;20198;-72
2022/11/28 03:20:42;;;;;;;15.63;14.13;;;;;;;4.09;100.00;100031.06;4980556;28;20245;-72
2022/11/28 03:23:35;;;;;;;14.80;13.50;;;;;;;4.11;100.00;100032.78;4982441;28;20208;-74
2022/11/28 03:26:20;;;;;;;15.33;13.93;;;;;;;4.12;100.00;100037.06;4981175;28;20204;-72
2022/11/28 03:29:10;;;;;;;16.60;15.00;;;;;;;4.15;100.00;100049.09;4985097;28;20186;-72
2022/11/28 03:31:41;;;;;;;16.30;14.70;;;;;;;4.17;100.00;100038.84;4982538;28;20180;-72
2022/11/28 03:34:11;;;;;;;15.93;14.43;;;;;;;4.17;100.00;100032.00;4982908;28;20185;-73
2022/11/28 03:36:54;;;;;;;16.83;15.23;;;;;;;4.18;100.00;100028.63;4990049;28;20238;-73
2022/11/28 03:39:25;;;;;;;16.87;15.27;;;;;;;4.18;100.00;100022.63;4984902;28;20339;-72
2022/11/28 03:41:55;;;;;;;16.10;14.60;;;;;;;4.20;100.00;100033.78;4985837;28;21045;-72
2022/11/28 03:44:38;;;;;;;15.87;14.47;;;;;;;4.25;100.00;100042.34;4982922;28;20710;-72
2022/11/28 03:47:04;;;;;;;16.50;14.90;;;;;;;4.30;100.00;100027.91;4985864;28;20194;-74
2022/11/28 03:49:39;;;;;;;18.43;16.63;;;;;;;4.34;100.00;100021.13;4983807;28;20216;-73
2022/11/28 03:52:09;;;;;;;17.17;15.57;;;;;;;4.37;100.00;100016.91;4983893;28;20200;-73
2022/11/28 03:54:54;;;;;;;16.90;15.20;;;;;;;4.40;100.00;100010.97;4988807;28;20196;-75
2022/11/28 03:57:23;;;;;;;16.20;14.70;;;;;;;4.42;100.00;100014.41;4987856;28;20221;-73
2022/11/28 03:59:51;;;;;;;16.70;15.10;;;;;;;4.42;100.00;100017.81;4988410;28;20228;-73
2022/11/28 04:02:25;;;;;;;15.40;14.00;;;;;;;4.42;100.00;100015.25;4984485;28;20185;-72
2022/11/28 04:05:00;;;;;;;16.17;14.67;;;;;;;4.42;100.00;100012.69;4981157;28;20285;-73
2022/11/28 04:07:41;;;;;;;16.07;14.50;;;;;;;4.40;100.00;100011.81;4978280;28;20267;-73
2022/11/28 04:10:19;;;;;;;16.40;14.90;;;;;;;4.37;100.00;100014.34;4977183;28;20210;-72
2022/11/28 04:12:53;;;;;;;15.70;14.30;;;;;;;4.35;100.00;100015.16;4982545;28;20211;-73
2022/11/28 04:15:31;;;;;;;16.73;15.20;;;;;;;4.31;100.00;100019.38;4987435;28;20240;-73
2022/11/28 04:18:10;;;;;;;15.07;13.67;;;;;;;4.29;100.00;100015.09;4981416;28;20974;-74
2022/11/28 04:20:45;;;;;;;15.00;13.70;;;;;;;4.24;100.00;100015.91;4990813;28;20212;-73
2022/11/28 04:23:14;;;;;;;15.27;13.80;;;;;;;4.22;100.00;100017.56;4986943;28;20212;-72
2022/11/28 04:25:44;;;;;;;15.70;14.20;;;;;;;4.20;100.00;100016.69;4984794;28;20205;-74
2022/11/28 04:28:15;;;;;;;15.63;14.13;;;;;;;4.19;100.00;100016.69;4982628;28;20313;-73
2022/11/28 04:30:44;;;;;;;15.00;13.63;;;;;;;4.17;100.00;100008.97;4981576;28;21063;-73
2022/11/28 04:33:14;;;;;;;16.03;14.43;;;;;;;4.16;100.00;100007.22;4987003;28;20212;-72
2022/11/28 04:35:44;;;;;;;16.63;15.13;;;;;;;4.13;100.00;100009.78;4984105;28;20196;-74
2022/11/28 04:38:10;;;;;;;17.73;16.03;;;;;;;4.08;100.00;100011.41;4985759;28;20785;-74
2022/11/28 04:40:46;;;;;;;18.67;16.77;;;;;;;4.04;100.00;100007.97;4981444;28;20580;-73
2022/11/28 04:43:18;;;;;;;17.37;15.77;;;;;;;4.02;100.00;100013.88;4984098;28;20228;-73
2022/11/28 04:45:49;;;;;;;17.37;15.77;;;;;;;4.01;100.00;100004.50;4978701;28;20181;-73
2022/11/28 04:48:15;;;;;;;17.50;15.87;;;;;;;4.01;100.00;100014.75;4986197;28;20198;-71
2022/11/28 04:51:00;;;;;;;15.97;14.50;;;;;;;4.00;100.00;100011.31;4976728;28;21154;-73
2022/11/28 04:53:34;;;;;;;15.93;14.53;;;;;;;4.01;100.00;99999.38;4986771;28;20192;-75
2022/11/28 04:56:06;;;;;;;16.13;14.70;;;;;;;4.01;100.00;99994.25;4981275;28;20740;-73
2022/11/28 04:58:40;;;;;;;17.60;16.00;;;;;;;4.00;100.00;99998.50;4983733;28;20645;-73
2022/11/28 05:01:08;;;;;;;18.23;16.43;;;;;;;3.99;100.00;99998.50;4978952;28;20209;-73
2022/11/28 05:03:34;;;;;;;17.83;16.10;;;;;;;4.00;100.00;99997.66;4989940;28;20272;-72
2022/11/28 05:06:02;;;;;;;16.87;15.27;;;;;;;3.97;100.00;99993.34;4982610;28;20193;-74
2022/11/28 05:08:27;;;;;;;17.33;15.73;;;;;;;3.94;100.00;99980.50;4981969;28;20312;-73
2022/11/28 05:10:52;;;;;;;18.63;16.87;;;;;;;3.91;100.00;99990.72;4984304;28;20213;-72
2022/11/28 05:13:18;;;;;;;16.87;15.23;;;;;;;3.90;100.00;99994.13;4980835;28;20558;-74
2022/11/28 05:15:43;;;;;;;17.40;15.80;;;;;;;3.89;100.00;99992.38;4983999;28;20181;-74
2022/11/28 05:18:08;;;;;;;18.67;16.90;;;;;;;3.86;100.00;99995.75;4984972;28;20305;-72
2022/11/28 05:20:36;;;;;;;16.50;15.00;;;;;;;3.86;100.00;99982.94;4984215;28;20311;-73
2022/11/28 05:23:02;;;;;;;17.63;16.03;;;;;;;3.85;100.00;99988.06;4983731;28;20761;-73
2022/11/28 05:25:27;;;;;;;16.93;15.33;;;;;;;3.83;100.00;99984.63;4985238;28;20273;-72
2022/11/28 05:27:53;;;;;;;16.73;15.13;;;;;;;3.84;100.00;99981.22;4983828;28;20701;-74
2022/11/28 05:30:18;;;;;;;16.80;15.20;;;;;;;3.84;100.00;99964.19;4983935;28;20251;-74
2022/11/28 05:32:43;;;;;;;15.53;14.13;;;;;;;3.86;100.00;99959.06;4984153;28;20193;-75
2022/11/28 05:35:09;;;;;;;15.00;13.60;;;;;;;3.87;100.00;99965.91;4983470;28;20185;-72
2022/11/28 05:37:34;;;;;;;16.20;14.80;;;;;;;3.87;100.00;99961.63;4984011;28;20570;-73
2022/11/28 05:39:59;;;;;;;13.80;12.60;;;;;;;3.88;100.00;99957.38;4984449;28;20871;-72
2022/11/28 05:42:27;;;;;;;12.60;11.40;;;;;;;3.87;100.00;99953.09;4985343;28;20620;-72
2022/11/28 05:44:52;;;;;;;12.53;11.43;;;;;;;3.86;100.00;99952.22;4978834;28;20244;-73
2022/11/28 05:47:18;;;;;;;11.27;10.27;;;;;;;3.87;100.00;99948.00;4981568;28;20276;-75
2022/11/28 05:49:45;;;;;;;11.40;10.40;;;;;;;3.87;100.00;99953.94;4979598;28;20215;-72
2022/11/28 05:52:11;;;;;;;11.50;10.40;;;;;;;3.87;100.00;99946.28;4980028;28;20192;-73
2022/11/28 05:54:36;;;;;;;11.90;10.90;;;;;;;3.87;100.00;99959.06;4980995;28;20212;-73
2022/11/28 05:57:02;;;;;;;11.93;10.93;;;;;;;3.85;100.00;99953.09;4984171;28;20197;-73
2022/11/28 05:59:27;;;;;;;14.60;13.30;;;;;;;3.84;100.00;99961.63;4984615;28;20946;-72
2022/11/28 06:01:52;;;;;;;14.90;13.50;;;;;;;3.82;100.00;99955.63;4984912;28;20277;-72
2022/11/28 06:04:18;;;;;;;15.27;13.77;;;;;;;3.77;100.00;99950.44;4984668;28;20217;-74
2022/11/28 06:06:43;;;;;;;16.07;14.47;;;;;;;3.77;100.00;99947.88;4978164;28;20189;-74
2022/11/28 06:09:09;;;;;;;17.20;15.50;;;;;;;3.76;100.00;99955.53;4978745;28;20228;-72
2022/11/28 06:11:35;;;;;;;16.40;14.90;;;;;;;3.72;100.00;99958.88;4983015;28;20243;-72
2022/11/28 06:14:01;;;;;;;14.53;13.23;;;;;;;3.72;100.00;99969.09;4980611;28;20536;-72
2022/11/28 06:16:28;;;;;;;14.97;13.67;;;;;;;3.73;100.00;99970.81;4977751;28;20190;-72
2022/11/28 06:18:56;;;;;;;15.33;13.97;;;;;;;3.73;100.00;99968.25;4982673;28;20217;-73
2022/11/28 06:21:23;;;;;;;15.60;14.00;;;;;;;3.73;100.00;99969.16;4981178;28;20200;-73
2022/11/28 06:23:48;;;;;;;15.53;14.03;;;;;;;3.74;100.00;99977.66;4983376;28;20208;-73
2022/11/28 06:26:17;;;;;;;14.87;13.57;;;;;;;3.74;100.00;99982.78;4984709;28;20283;-72
2022/11/28 06:28:43;;;;;;;15.03;13.63;;;;;;;3.74;100.00;99982.78;4982826;28;20268;-74
2022/11/28 06:31:15;;;;;;;14.67;13.37;;;;;;;3.74;100.00;99986.22;4982858;28;20347;-72
2022/11/28 06:33:40;;;;;;;14.17;12.87;;;;;;;3.76;100.00;99993.91;4987454;28;20201;-75
2022/11/28 06:36:07;;;;;;;14.10;12.80;;;;;;;3.77;100.00;99993.94;5003414;28;20177;-75
2022/11/28 06:38:33;;;;;;;13.93;12.73;;;;;;;3.77;100.00;99988.84;4999560;28;20198;-72
2022/11/28 06:41:01;;;;;;;14.60;13.40;;;;;;;3.77;100.00;99991.38;4987544;28;20806;-73
2022/11/28 06:43:26;;;;;;;14.97;13.50;;;;;;;3.78;100.00;99992.25;4980814;28;20253;-73
2022/11/28 06:45:52;;;;;;;15.57;14.13;;;;;;;3.77;100.00;99996.50;4985443;28;20670;-73
2022/11/28 06:48:18;;;;;;;14.10;12.80;;;;;;;3.77;100.00;99999.06;4987377;28;20204;-73
2022/11/28 06:50:43;;;;;;;14.60;13.30;;;;;;;3.78;100.00;99995.63;4988471;28;20212;-74
2022/11/28 06:53:09;;;;;;;15.10;13.70;;;;;;;3.79;100.00;99999.94;4989152;28;20812;-74
2022/11/28 06:55:34;;;;;;;14.10;12.80;;;;;;;3.78;100.00;99993.09;4986181;28;21029;-72
2022/11/28 06:58:00;;;;;;;14.90;13.50;;;;;;;3.79;100.00;99992.25;4989345;28;20236;-75
2022/11/28 07:00:25;;;;;;;13.50;12.30;;;;;;;3.80;100.00;99993.13;4988868;28;20205;-73
2022/11/28 07:02:50;;;;;;;13.40;12.20;;;;;;;3.81;100.00;99998.25;4988741;28;20239;-73
2022/11/28 07:05:16;;;;;;;14.40;13.00;;;;;;;3.85;100.00;100011.09;4993375;28;20695;-73
2022/11/28 07:07:44;;;;;;;13.60;12.37;;;;;;;3.87;100.00;100004.31;4989642;28;20251;-72
2022/11/28 07:10:10;;;;;;;14.70;13.30;;;;;;;3.88;100.00;100004.31;4985651;28;20273;-73
2022/11/28 07:12:36;;;;;;;12.83;11.73;;;;;;;3.91;100.00;100006.94;4979680;28;20240;-73
2022/11/28 07:15:01;;;;;;;12.93;11.83;;;;;;;3.93;100.00;100005.25;4985150;28;20189;-74
2022/11/28 07:17:27;;;;;;;13.57;12.27;;;;;;;3.94;100.00;100006.97;4981631;28;20281;-73
2022/11/28 07:19:52;;;;;;;13.60;12.40;;;;;;;3.96;100.00;100012.97;4987457;28;20233;-73
2022/11/28 07:22:17;;;;;;;15.47;14.10;;;;;;;3.96;100.00;100018.09;4983891;28;20293;-75
2022/11/28 07:24:43;;;;;;;29.63;26.57;;;;;;;3.98;100.00;100023.22;4986974;28;20210;-74
2022/11/28 07:27:08;;;;;;;30.43;27.43;;;;;;;4.00;100.00;100016.44;4987635;28;20745;-73
2022/11/28 07:29:35;;;;;;;24.93;22.53;;;;;;;4.01;100.00;100012.19;4987651;28;20239;-73
2022/11/28 07:32:04;;;;;;;23.40;21.20;;;;;;;4.04;100.00;100023.31;4986765;28;20189;-72
2022/11/28 07:34:30;;;;;;;21.33;19.33;;;;;;;4.07;100.00;100018.25;4985214;28;20265;-73
2022/11/28 07:36:55;;;;;;;19.50;17.70;;;;;;;4.10;100.00;100007.19;4986159;28;20194;-73
2022/11/28 07:39:20;;;;;;;18.57;16.97;;;;;;;4.16;100.00;100011.50;4981802;28;20213;-72
2022/11/28 07:41:46;;;;;;;19.40;17.63;;;;;;;4.19;100.00;100007.28;4982733;28;20296;-73
2022/11/28 07:44:11;;;;;;;17.43;15.83;;;;;;;4.24;100.00;100008.22;4979302;28;20233;-72
2022/11/28 07:46:37;;;;;;;17.00;15.37;;;;;;;4.27;100.00;100008.25;4976829;28;20701;-72
2022/11/28 07:49:03;;;;;;;17.03;15.50;;;;;;;4.32;100.00;100015.09;4979467;28;20227;-73
2022/11/28 07:51:32;;;;;;;16.47;14.97;;;;;;;4.36;100.00;100011.75;4985123;28;20563;-73
2022/11/28 07:53:58;;;;;;;16.20;14.80;;;;;;;4.40;100.00;100021.22;4981770;28;20249;-74
2022/11/28 07:56:27;;;;;;;17.80;16.30;;;;;;;4.43;100.00;100021.25;4981465;28;20605;-73
2022/11/28 07:58:53;;;;;;;16.47;15.07;;;;;;;4.49;100.00;100020.47;4987523;28;20198;-73
2022/11/28 08:01:34;;;;;;;17.97;16.30;;;;;;;4.52;100.00;100021.34;4980570;28;20182;-72
2022/11/28 08:04:00;;;;;;;17.73;16.23;;;;;;;4.54;100.00;100023.91;4983948;28;20270;-72
2022/11/28 08:06:28;;;;;;;19.70;17.90;;;;;;;4.61;100.00;100022.31;4986532;28;20202;-72
2022/11/28 08:08:55;;;;;;;20.03;18.13;;;;;;;4.64;100.00;100025.75;4986767;28;20899;-73
2022/11/28 08:11:23;;;;;;;19.27;17.47;;;;;;;4.67;100.00;100028.38;4988179;28;20594;-73
2022/11/28 08:13:48;;;;;;;17.10;15.57;;;;;;;4.72;100.00;100023.28;4985480;28;20683;-73
2022/11/28 08:16:19;;;;;;;17.03;15.43;;;;;;;4.76;100.00;100026.72;4985614;28;20192;-73
2022/11/28 08:18:45;;;;;;;17.00;15.50;;;;;;;4.80;100.00;100024.19;4985165;28;20182;-73
2022/11/28 08:21:22;;;;;;;15.80;14.40;;;;;;;4.84;100.00;100020.84;4988765;28;20197;-73
2022/11/28 08:23:50;;;;;;;16.17;14.77;;;;;;;4.88;100.00;100008.91;4985557;28;21093;-75
2022/11/28 08:26:18;;;;;;;16.73;15.20;;;;;;;4.92;100.00;100013.22;4984846;28;20185;-73
2022/11/28 08:28:43;;;;;;;16.47;14.97;;;;;;;4.96;100.00;100019.22;4988083;28;20244;-72
2022/11/28 08:31:12;;;;;;;14.60;13.20;;;;;;;5.00;100.00;100021.00;4990593;28;20212;-73
2022/11/28 08:33:37;;;;;;;15.17;13.80;;;;;;;5.04;100.00;100026.16;4981789;28;20278;-73
2022/11/28 08:36:07;;;;;;;13.50;12.30;;;;;;;5.10;100.00;100027.06;4984433;28;20211;-74
2022/11/28 08:38:34;;;;;;;13.37;12.07;;;;;;;5.12;100.00;100021.09;4984699;28;20193;-74
2022/11/28 08:41:04;;;;;;;12.73;11.63;;;;;;;5.17;100.00;100011.75;4985188;28;20203;-73
2022/11/28 08:43:30;;;;;;;13.07;11.73;;;;;;;5.20;100.00;100010.91;4982144;28;20913;-73
2022/11/28 08:45:56;;;;;;;13.47;12.03;;;;;;;5.24;100.00;100001.50;4987427;28;20191;-73
2022/11/28 08:48:21;;;;;;;14.67;13.17;;;;;;;5.25;100.00;100001.53;4983374;28;20190;-73
2022/11/28 08:50:48;;;;;;;13.73;12.33;;;;;;;5.30;100.00;99999.00;4986232;28;20983;-74
2022/11/28 08:53:13;;;;;;;12.87;11.63;;;;;;;5.34;100.00;99993.06;4983820;28;20198;-73
2022/11/28 08:55:43;;;;;;;14.07;12.67;;;;;;;5.38;100.00;99999.06;4990750;28;20183;-74
2022/11/28 08:58:09;;;;;;;14.17;12.83;;;;;;;5.42;100.00;99996.53;4985134;28;20709;-72
2022/11/28 09:00:35;;;;;;;14.57;13.27;;;;;;;5.47;100.00;100007.69;4986073;28;20721;-74
2022/11/28 09:03:00;;;;;;;16.27;14.80;;;;;;;5.54;100.00;100007.72;4980048;28;20200;-73
2022/11/28 09:05:27;;;;;;;17.13;15.63;;;;;;;5.59;100.00;100014.63;4985567;28;20191;-73
2022/11/28 09:07:53;;;;;;;16.20;14.73;;;;;;;5.67;100.00;100011.25;4984590;28;20194;-74
2022/11/28 09:10:19;;;;;;;13.87;12.67;;;;;;;5.72;100.00;100017.28;4986267;28;20240;-72
2022/11/28 09:12:44;;;;;;;12.33;11.23;;;;;;;5.77;100.00;100019.03;4982225;28;20200;-73
2022/11/28 09:15:10;;;;;;;12.07;10.97;;;;;;;5.80;100.00;100019.06;4984981;28;20186;-74
2022/11/28 09:17:35;;;;;;;11.30;10.30;;;;;;;5.83;100.00;100012.19;4985930;28;20195;-73
2022/11/28 09:20:00;;;;;;;10.73;9.73;;;;;;;5.85;100.00;100020.78;4983548;28;20220;-74
2022/11/28 09:22:27;;;;;;;9.60;8.80;;;;;;;5.88;100.00;100028.50;4979787;28;20198;-74
2022/11/28 09:24:53;;;;;;;11.97;10.90;;;;;;;5.92;100.00;100025.94;4981011;28;20351;-73
2022/11/28 09:27:18;;;;;;;10.30;9.40;;;;;;;5.95;100.00;100017.44;4980467;28;20318;-73
2022/11/28 09:29:43;;;;;;;9.97;9.17;;;;;;;5.99;100.00;100029.41;4980765;28;20203;-73
2022/11/28 09:32:09;;;;;;;10.17;9.37;;;;;;;6.05;100.00;100028.66;4980628;28;20574;-73
2022/11/28 09:34:34;;;;;;;10.77;9.87;;;;;;;6.12;100.00;100032.94;4983825;28;20472;-73
2022/11/28 09:36:59;;;;;;;10.43;9.43;;;;;;;6.19;100.00;100034.72;4980970;28;20187;-74
2022/11/28 09:39:24;;;;;;;9.97;9.17;;;;;;;6.28;100.00;100043.31;4982950;28;20250;-73
2022/11/28 09:42:15;;;;;;;9.60;8.80;;;;;;;6.36;100.00;100044.19;4986896;28;20185;-74
2022/11/28 09:44:49;;;;;;;9.00;8.27;;;;;;;6.42;100.00;100044.22;4981343;28;20264;-74
2022/11/28 09:47:23;;;;;;;8.93;8.23;;;;;;;6.52;100.00;100033.13;4982927;28;20699;-73
2022/11/28 09:49:53;;;;;;;12.20;11.20;;;;;;;6.55;100.00;100034.84;4984480;28;20210;-73
2022/11/28 09:52:44;;;;;;;12.07;11.07;;;;;;;6.55;100.00;100024.56;4971898;28;20191;-73
2022/11/28 09:55:33;;;;;;;12.07;11.03;;;;;;;6.59;100.00;100023.72;4982251;28;20694;-73
2022/11/28 09:58:04;;;;;;;12.67;11.57;;;;;;;6.64;100.00;100023.75;4977452;28;20288;-75
2022/11/28 10:00:37;;;;;;;12.20;11.20;;;;;;;6.73;100.00;100021.19;4978730;28;20291;-71
2022/11/28 10:03:32;;;;;;;12.00;11.00;;;;;;;6.80;100.00;100027.19;4976500;28;21030;-73
2022/11/28 10:06:16;;;;;;;11.07;10.17;;;;;;;6.88;100.00;100022.94;4982215;28;20188;-74
2022/11/28 10:09:12;;;;;;;9.97;9.07;;;;;;;6.99;100.00;100023.81;4984196;28;20195;-73
2022/11/28 10:11:55;;;;;;;9.10;8.37;;;;;;;7.10;100.00;100017.81;4983220;28;20193;-75
2022/11/28 10:14:52;;;;;;;8.47;7.70;;;;;;;7.19;100.00;100016.97;4977066;28;20196;-73
2022/11/28 10:17:33;;;;;;;7.77;7.07;;;;;;;7.24;100.00;100015.25;4987357;28;20196;-73
2022/11/28 10:20:09;;;;;;;8.00;7.20;;;;;;;7.30;100.00;100016.13;4985949;28;20208;-74
2022/11/28 10:22:47;;;;;;;7.60;6.80;;;;;;;7.40;100.00;100013.53;4985518;28;20191;-74
2022/11/28 10:25:23;;;;;;;8.23;7.20;;;;;;;7.44;100.00;100016.09;4982297;28;20210;-74
2022/11/28 10:27:49;;;;;;;7.40;6.70;;;;;;;7.49;100.00;100008.38;4984780;28;20617;-73
2022/11/28 10:30:22;;;;;;;7.30;6.57;;;;;;;7.57;100.00;100006.66;4987490;28;20235;-74
2022/11/28 10:33:09;;;;;;;8.07;7.30;;;;;;;7.62;100.00;99993.78;4978250;28;20193;-73
2022/11/28 10:35:42;;;;;;;7.83;7.13;;;;;;;7.68;100.00;99995.47;4985756;28;20369;-73
2022/11/28 10:38:15;;;;;;;7.03;6.43;;;;;;;7.74;100.00;99993.75;4979147;28;20703;-74
2022/11/28 10:40:48;;;;;;;7.67;6.97;;;;;;;7.82;100.00;99986.00;4980137;28;20244;-73
2022/11/28 10:43:42;;;;;;;7.67;6.97;;;;;;;7.92;100.00;99979.09;4980058;28;20224;-75
2022/11/28 10:46:23;;;;;;;6.90;6.40;;;;;;;8.01;100.00;99973.06;4981547;28;20193;-73
2022/11/28 10:48:48;;;;;;;7.27;6.53;;;;;;;8.08;100.00;99970.47;4989948;28;20259;-73
2022/11/28 10:51:29;;;;;;;8.67;7.87;;;;;;;8.13;100.00;99965.28;4983206;28;20981;-73
2022/11/28 10:54:13;;;;;;;7.77;7.17;;;;;;;8.17;100.00;99967.00;4986879;28;20223;-73
2022/11/28 10:56:47;;;;;;;8.10;7.40;;;;;;;8.26;100.00;99971.25;4988818;28;20246;-73
2022/11/28 10:59:37;;;;;;;8.80;7.97;;;;;;;8.36;100.00;99978.06;4991065;28;20266;-72
2022/11/28 11:02:27;;;;;;;8.30;7.50;;;;;;;8.46;100.00;99970.31;4979878;28;20776;-73
2022/11/28 11:04:53;;;;;;;7.80;7.10;;;;;;;8.53;100.00;99975.47;4985370;28;20288;-74
2022/11/28 11:07:30;;;;;;;8.87;8.07;;;;;;;8.63;100.00;99972.81;4984194;28;20966;-74
2022/11/28 11:10:18;;;;;;;7.80;7.10;;;;;;;8.67;100.00;99967.63;4986388;28;20240;-72
2022/11/28 11:12:44;;;;;;;7.50;6.80;;;;;;;8.70;100.00;99969.31;4978531;28;20677;-73
2022/11/28 11:15:36;;;;;;;7.20;6.60;;;;;;;8.74;100.00;99971.00;4979945;28;20272;-72
2022/11/28 11:18:20;;;;;;;7.00;6.33;;;;;;;8.77;100.00;99965.00;4976899;28;20208;-73
2022/11/28 11:20:45;;;;;;;6.43;5.93;;;;;;;8.79;100.00;99958.06;4978391;28;20667;-73
2022/11/28 11:23:21;;;;;;;7.23;6.43;;;;;;;8.77;100.00;99952.94;4976709;28;20190;-73
2022/11/28 11:25:51;;;;;;;6.73;6.17;;;;;;;8.78;100.00;99959.81;4977922;28;20205;-73
2022/11/28 11:28:28;;;;;;;6.97;6.27;;;;;;;8.78;100.00;99948.63;4977751;28;20205;-72
2022/11/28 11:31:02;;;;;;;6.80;6.10;;;;;;;8.81;100.00;99949.47;4982001;28;20216;-73